Terminal Aerodrome Forecast
Issued by NWS

Home | Current Version | Previous Version | Text Only | Print | Product List | Glossary On
Versions: 1 2 3 4 5 6 7 8 9 10 11 12 13 14 15 16 17 18 19 20 21
000
FTUS43 KGRB 301305 AAA
TAFATW
TAF AMD
KATW 301305Z 3013/3112 00000KT 1/2SM FG BKN005
      TEMPO 3013/3015 2SM BR BKN007
     FM301500 22003KT 5SM BR BKN007
     FM301600 21005KT P6SM BKN012
     FM301800 21007KT P6SM FEW020
     FM310100 19003KT P6SM SKC
     FM310900 21004KT 6SM BR BKN004=

USA.gov is the U.S. government's official web portal to all federal, state and local government web resources and services.